Details From CYUL - Montreal Pierre E Trudeau Intl
To TNCM - St Maarten - Princess Juliana Intl
Flight Number -
Tags Generated
Created
Modified
Stats Distance 1,731 nm / 3,206 km
Max Altitude 0 ft / 0 m
Waypoints 5
Social Downloads 2
Likes 0
Share VATSIM

Download

Looking for another format? Having issues loading an existing format? Contact us
Advertisement - Login to hide

Notes

Generated

Route

CYUL WALLU KN51E PJD TNCM

ID Type Via Altitude Latitude Longitude Leg Dist Tot Dist Heading (true) Name
O CYUL APT - 0 ft / 0 m 45.46250˚ -73.76500˚ - 0 nm - -
WALLU FIX - 0 ft / 0 m 41.74331˚ -71.64075˚ 241 nm 241 nm 157° / 158° -
KN51E FIX - 0 ft / 0 m 38.50000˚ -70.00000˚ 208 nm 450 nm 158° / 159° -
PJD NDB - 0 ft / 0 m 18.03833˚ -63.11833˚ 1280 nm 1731 nm 162° / 165° ST MAARTEN NDB
O TNCM APT - 0 ft / 0 m 18.03937˚ -63.11961˚ 0 nm 1731 nm 310° / 310° -

Altitude Profile

Advertisement - Login to hide

Weather


0- 5 10 15 20 25 30 35+ Temperature / ° C

Clouds and Precipitation
Forecast for 2017-12-11 12:00 UTC. Updated 5 minutes ago

Ground ~20,000 ft ~40,000 ft Winds

CYUL

Details ICAO CYUL (YUL)
Name Montreal Pierre E Trudeau Intl
Region Canada
Timezone America/Montreal (UTC-5.0)
Stats Elevation 117 ft / 36 m (AMSL)
Location 45.467269° -73.744028°
Runways 3
Magnetic Variation 14.322° W

METAR

CYUL 110700Z 35014KT 15SM -SN BKN016 OVC025 M07/M11 A2986 RMK SC7SC1 SLP117

Decode

TAF

TAF TAF CYUL 110538Z 1106/1206 30012KT P6SM BKN030 TEMPO 1106/1111 P6SM -SHSN OVC020 BECMG 1107/1109 36012KT FM111200 36012KT P6SM SCT030 FM111800 26008KT P6SM FEW240 FM120200 05010KT P6SM BKN120 RMK NXT FCST BY 110900Z

Decode

Departure Runways

ID Width Length Bearing (true) Bearing (mag) Surface Threshold Offset Overrun Length
06L 200 ft / 61 m 11,020 ft / 3,359 m 42.62° 56.94° Asphalt 0 ft / 0 m 0 ft / 0 m
06R 200 ft / 61 m 9,706 ft / 2,958 m 41.23° 55.55° Asphalt 0 ft / 0 m 0 ft / 0 m
10 200 ft / 61 m 6,831 ft / 2,082 m 87.45° 101.77° Asphalt 0 ft / 0 m 0 ft / 0 m
24L 200 ft / 61 m 9,706 ft / 2,958 m 221.25° 235.57° Asphalt 0 ft / 0 m 0 ft / 0 m
24R 200 ft / 61 m 11,020 ft / 3,359 m 222.64° 236.96° Asphalt 0 ft / 0 m 0 ft / 0 m
28 200 ft / 61 m 6,831 ft / 2,082 m 267.47° 281.79° Asphalt 0 ft / 0 m 0 ft / 0 m

TNCM

Details ICAO TNCM (SXM)
Name St Maarten - Princess Juliana Intl
Region Caribbean Netherlands, Aruba, Curaçao, Sint Maarten
Timezone Unknown (UTC+0.0)
Stats Elevation 12 ft / 4 m (AMSL)
Location 18.040889° -63.108974°
Runways 1
Magnetic Variation 14.325° W

METAR

Not found

TAF

TAF TNCM 110540Z 1106/1206 06010KT P6SM VCSH SCT018 SCT035

Decode

Destination Runways

ID Width Length Bearing (true) Bearing (mag) Surface Threshold Offset Overrun Length
10 148 ft / 45 m 7,464 ft / 2,275 m 81.43° 95.75° Asphalt 0 ft / 0 m 151 ft / 46 m
28 148 ft / 45 m 7,464 ft / 2,275 m 261.44° 275.76° Asphalt 397 ft / 121 m 0 ft / 0 m

Popular Alternatives